sensor_id;sensor_type;location;lat;lon;timestamp;pressure;altitude;pressure_sealevel;temperature;humidity
4767;BME280;2397;53.576;9.746;2023-04-15T00:00:58;101034.56;;;8.76;77.53
4767;BME280;2397;53.576;9.746;2023-04-15T00:03:25;101022.91;;;8.69;77.59
4767;BME280;2397;53.576;9.746;2023-04-15T00:05:52;101015.97;;;8.68;78.14
4767;BME280;2397;53.576;9.746;2023-04-15T00:08:19;101016.22;;;8.65;78.06
4767;BME280;2397;53.576;9.746;2023-04-15T00:10:45;101017.63;;;8.69;77.90
4767;BME280;2397;53.576;9.746;2023-04-15T00:13:12;101013.75;;;8.73;77.62
4767;BME280;2397;53.576;9.746;2023-04-15T00:15:39;101018.72;;;8.67;77.84
4767;BME280;2397;53.576;9.746;2023-04-15T00:18:06;101010.66;;;8.59;78.20
4767;BME280;2397;53.576;9.746;2023-04-15T00:20:34;101010.97;;;8.65;78.56
4767;BME280;2397;53.576;9.746;2023-04-15T00:23:01;101010.41;;;8.62;78.84
4767;BME280;2397;53.576;9.746;2023-04-15T00:25:29;101016.44;;;8.53;79.20
4767;BME280;2397;53.576;9.746;2023-04-15T00:27:55;101009.00;;;8.58;79.30
4767;BME280;2397;53.576;9.746;2023-04-15T00:30:22;101005.19;;;8.71;79.05
4767;BME280;2397;53.576;9.746;2023-04-15T00:32:49;101002.66;;;8.60;78.96
4767;BME280;2397;53.576;9.746;2023-04-15T00:35:19;100996.16;;;8.64;79.15
4767;BME280;2397;53.576;9.746;2023-04-15T00:37:48;100994.88;;;8.59;79.62
4767;BME280;2397;53.576;9.746;2023-04-15T00:40:16;100994.34;;;8.65;79.66
4767;BME280;2397;53.576;9.746;2023-04-15T00:42:44;100991.53;;;8.57;79.39
4767;BME280;2397;53.576;9.746;2023-04-15T00:45:12;100987.97;;;8.58;80.33
4767;BME280;2397;53.576;9.746;2023-04-15T00:47:40;100989.63;;;8.59;80.29
4767;BME280;2397;53.576;9.746;2023-04-15T00:50:08;100994.84;;;8.49;80.50
4767;BME280;2397;53.576;9.746;2023-04-15T00:52:36;100987.97;;;8.58;80.82
4767;BME280;2397;53.576;9.746;2023-04-15T00:55:04;100992.66;;;8.54;80.73
4767;BME280;2397;53.576;9.746;2023-04-15T00:57:31;100993.22;;;8.58;81.14
4767;BME280;2397;53.576;9.746;2023-04-15T00:59:57;100994.84;;;8.49;81.52
4767;BME280;2397;53.576;9.746;2023-04-15T01:02:25;100996.16;;;8.34;81.90
4767;BME280;2397;53.576;9.746;2023-04-15T01:04:52;100989.84;;;8.46;82.26
4767;BME280;2397;53.576;9.746;2023-04-15T01:07:19;100988.88;;;8.47;82.42
4767;BME280;2397;53.576;9.746;2023-04-15T01:09:46;100987.47;;;8.43;82.75
4767;BME280;2397;53.576;9.746;2023-04-15T01:12:13;100989.31;;;8.52;82.80
4767;BME280;2397;53.576;9.746;2023-04-15T01:14:41;100988.53;;;8.61;82.10
4767;BME280;2397;53.576;9.746;2023-04-15T01:17:08;100988.53;;;8.61;81.54
4767;BME280;2397;53.576;9.746;2023-04-15T01:19:35;100997.06;;;8.54;81.91
4767;BME280;2397;53.576;9.746;2023-04-15T01:22:02;100999.25;;;8.49;81.99
4767;BME280;2397;53.576;9.746;2023-04-15T01:24:29;100987.38;;;8.54;82.17
4767;BME280;2397;53.576;9.746;2023-04-15T01:26:56;100990.91;;;8.64;82.13
4767;BME280;2397;53.576;9.746;2023-04-15T01:29:23;100981.03;;;8.57;82.49
4767;BME280;2397;53.576;9.746;2023-04-15T01:31:51;100973.09;;;8.47;82.68
4767;BME280;2397;53.576;9.746;2023-04-15T01:34:18;100984.16;;;8.41;82.92
4767;BME280;2397;53.576;9.746;2023-04-15T01:36:44;100971.84;;;8.51;82.94
4767;BME280;2397;53.576;9.746;2023-04-15T01:39:13;100981.81;;;8.48;83.12
4767;BME280;2397;53.576;9.746;2023-04-15T01:41:39;100969.19;;;8.42;83.68
4767;BME280;2397;53.576;9.746;2023-04-15T01:44:07;100973.34;;;8.44;83.88
4767;BME280;2397;53.576;9.746;2023-04-15T01:46:34;100969.19;;;8.42;83.82
4767;BME280;2397;53.576;9.746;2023-04-15T01:49:02;100966.16;;;8.46;83.82
4767;BME280;2397;53.576;9.746;2023-04-15T01:51:30;100965.19;;;8.47;84.06
4767;BME280;2397;53.576;9.746;2023-04-15T01:53:57;100969.94;;;8.53;83.78
4767;BME280;2397;53.576;9.746;2023-04-15T01:56:23;100960.78;;;8.48;83.92
4767;BME280;2397;53.576;9.746;2023-04-15T01:58:51;100954.41;;;8.50;84.01
4767;BME280;2397;53.576;9.746;2023-04-15T02:01:18;100957.47;;;8.55;84.01
4767;BME280;2397;53.576;9.746;2023-04-15T02:03:45;100960.22;;;8.54;83.84
4767;BME280;2397;53.576;9.746;2023-04-15T02:06:14;100953.88;;;8.47;83.91
4767;BME280;2397;53.576;9.746;2023-04-15T02:08:41;100952.50;;;8.52;83.60
4767;BME280;2397;53.576;9.746;2023-04-15T02:11:07;100951.38;;;8.45;84.06
4767;BME280;2397;53.576;9.746;2023-04-15T02:13:34;100953.69;;;8.48;84.35
4767;BME280;2397;53.576;9.746;2023-04-15T02:16:02;100954.38;;;8.41;84.53
4767;BME280;2397;53.576;9.746;2023-04-15T02:18:28;100950.47;;;8.35;84.31
4767;BME280;2397;53.576;9.746;2023-04-15T02:20:55;100951.88;;;8.39;84.58
4767;BME280;2397;53.576;9.746;2023-04-15T02:23:24;100958.78;;;8.40;84.87
4767;BME280;2397;53.576;9.746;2023-04-15T02:25:50;100955.69;;;8.26;84.81
4767;BME280;2397;53.576;9.746;2023-04-15T02:28:20;100952.47;;;8.22;85.36
4767;BME280;2397;53.576;9.746;2023-04-15T02:30:48;100963.00;;;8.22;85.35
4767;BME280;2397;53.576;9.746;2023-04-15T02:33:18;100961.00;;;8.35;85.54
4767;BME280;2397;53.576;9.746;2023-04-15T02:35:44;100958.31;;;8.26;85.35
4767;BME280;2397;53.576;9.746;2023-04-15T02:38:12;100957.66;;;8.33;85.69
4767;BME280;2397;53.576;9.746;2023-04-15T02:40:39;100963.50;;;8.37;85.72
4767;BME280;2397;53.576;9.746;2023-04-15T02:43:06;100953.13;;;8.35;85.31
4767;BME280;2397;53.576;9.746;2023-04-15T02:45:34;100954.50;;;8.39;85.46
4767;BME280;2397;53.576;9.746;2023-04-15T02:48:03;100953.66;;;8.39;85.68
4767;BME280;2397;53.576;9.746;2023-04-15T02:50:32;100954.28;;;8.52;85.36
4767;BME280;2397;53.576;9.746;2023-04-15T02:52:59;100948.19;;;8.51;85.15
4767;BME280;2397;53.576;9.746;2023-04-15T02:55:29;100947.75;;;8.46;85.35
4767;BME280;2397;53.576;9.746;2023-04-15T02:57:56;100952.59;;;8.41;85.48
4767;BME280;2397;53.576;9.746;2023-04-15T03:00:26;100952.44;;;8.43;85.18
4767;BME280;2397;53.576;9.746;2023-04-15T03:02:57;100951.63;;;8.42;85.71
4767;BME280;2397;53.576;9.746;2023-04-15T03:05:25;100947.88;;;8.45;85.64
4767;BME280;2397;53.576;9.746;2023-04-15T03:07:52;100948.03;;;8.43;85.59
4767;BME280;2397;53.576;9.746;2023-04-15T03:10:19;100950.13;;;8.49;85.35
4767;BME280;2397;53.576;9.746;2023-04-15T03:12:47;100950.81;;;8.51;85.45
4767;BME280;2397;53.576;9.746;2023-04-15T03:15:19;100955.66;;;8.46;85.65
4767;BME280;2397;53.576;9.746;2023-04-15T03:17:49;100954.94;;;8.44;85.62
4767;BME280;2397;53.576;9.746;2023-04-15T03:20:16;100951.00;;;8.29;86.12
4767;BME280;2397;53.576;9.746;2023-04-15T03:22:42;100947.13;;;8.33;86.39
4767;BME280;2397;53.576;9.746;2023-04-15T03:25:09;100951.16;;;8.37;86.34
4767;BME280;2397;53.576;9.746;2023-04-15T03:27:37;100943.56;;;8.34;86.53
4767;BME280;2397;53.576;9.746;2023-04-15T03:30:05;100945.91;;;8.37;86.46
4767;BME280;2397;53.576;9.746;2023-04-15T03:32:34;100945.91;;;8.37;86.62
4767;BME280;2397;53.576;9.746;2023-04-15T03:35:01;100940.81;;;8.36;86.39
4767;BME280;2397;53.576;9.746;2023-04-15T03:37:27;100938.69;;;8.30;86.61
4767;BME280;2397;53.576;9.746;2023-04-15T03:39:54;100942.41;;;8.27;86.91
4767;BME280;2397;53.576;9.746;2023-04-15T03:42:20;100945.47;;;8.32;86.99
4767;BME280;2397;53.576;9.746;2023-04-15T03:44:47;100939.97;;;8.35;87.07
4767;BME280;2397;53.576;9.746;2023-04-15T03:47:14;100941.19;;;8.31;87.06
4767;BME280;2397;53.576;9.746;2023-04-15T03:49:41;100951.88;;;8.39;87.42
4767;BME280;2397;53.576;9.746;2023-04-15T03:52:07;100946.06;;;8.36;87.32
4767;BME280;2397;53.576;9.746;2023-04-15T03:54:34;100946.31;;;8.33;87.39
4767;BME280;2397;53.576;9.746;2023-04-15T03:57:00;100944.38;;;8.35;87.35
4767;BME280;2397;53.576;9.746;2023-04-15T03:59:27;100945.91;;;8.37;87.12
4767;BME280;2397;53.576;9.746;2023-04-15T04:01:54;100946.63;;;8.39;87.30
4767;BME280;2397;53.576;9.746;2023-04-15T04:04:21;100949.97;;;8.41;87.41
4767;BME280;2397;53.576;9.746;2023-04-15T04:06:47;100947.47;;;8.40;87.01
4767;BME280;2397;53.576;9.746;2023-04-15T04:09:14;100942.75;;;8.43;87.06
4767;BME280;2397;53.576;9.746;2023-04-15T04:11:40;100947.00;;;8.35;87.21
4767;BME280;2397;53.576;9.746;2023-04-15T04:14:07;100942.88;;;8.42;87.38
4767;BME280;2397;53.576;9.746;2023-04-15T04:16:34;100943.59;;;8.44;87.18
4767;BME280;2397;53.576;9.746;2023-04-15T04:19:01;100940.81;;;8.36;87.29
4767;BME280;2397;53.576;9.746;2023-04-15T04:21:28;100947.13;;;8.33;87.47
4767;BME280;2397;53.576;9.746;2023-04-15T04:23:54;100943.09;;;8.29;87.58
4767;BME280;2397;53.576;9.746;2023-04-15T04:26:22;100951.72;;;8.31;87.96
4767;BME280;2397;53.576;9.746;2023-04-15T04:28:48;100949.06;;;8.31;88.17
4767;BME280;2397;53.576;9.746;2023-04-15T04:31:15;100958.50;;;8.34;88.20
4767;BME280;2397;53.576;9.746;2023-04-15T04:33:41;100958.75;;;8.31;88.29
4767;BME280;2397;53.576;9.746;2023-04-15T04:36:08;100957.66;;;8.33;88.36
4767;BME280;2397;53.576;9.746;2023-04-15T04:38:34;100950.22;;;8.38;88.54
4767;BME280;2397;53.576;9.746;2023-04-15T04:41:01;100956.16;;;8.40;88.53
4767;BME280;2397;53.576;9.746;2023-04-15T04:43:27;100959.38;;;8.44;88.65
4767;BME280;2397;53.576;9.746;2023-04-15T04:45:54;100961.97;;;8.34;88.71
4767;BME280;2397;53.576;9.746;2023-04-15T04:48:21;100955.75;;;8.35;88.44
4767;BME280;2397;53.576;9.746;2023-04-15T04:50:48;100950.22;;;8.38;88.71
4767;BME280;2397;53.576;9.746;2023-04-15T04:53:14;100959.78;;;8.39;88.61
4767;BME280;2397;53.576;9.746;2023-04-15T04:55:41;100965.28;;;8.36;88.55
4767;BME280;2397;53.576;9.746;2023-04-15T04:58:08;100972.06;;;8.39;88.80
4767;BME280;2397;53.576;9.746;2023-04-15T05:00:34;100968.09;;;8.44;88.72
4767;BME280;2397;53.576;9.746;2023-04-15T05:03:03;100969.78;;;8.45;88.58
4767;BME280;2397;53.576;9.746;2023-04-15T05:05:30;100968.94;;;8.45;88.81
4767;BME280;2397;53.576;9.746;2023-04-15T05:07:56;100967.00;;;8.47;88.56
4767;BME280;2397;53.576;9.746;2023-04-15T05:10:23;100966.84;;;8.48;88.68
4767;BME280;2397;53.576;9.746;2023-04-15T05:12:49;100970.19;;;8.50;88.34
4767;BME280;2397;53.576;9.746;2023-04-15T05:15:17;100960.78;;;8.48;88.39
4767;BME280;2397;53.576;9.746;2023-04-15T05:17:43;100965.03;;;8.39;88.57
4767;BME280;2397;53.576;9.746;2023-04-15T05:20:11;100964.06;;;8.40;88.54
4767;BME280;2397;53.576;9.746;2023-04-15T05:22:37;100958.53;;;8.43;88.72
4767;BME280;2397;53.576;9.746;2023-04-15T05:25:04;100957.56;;;8.44;88.76
4767;BME280;2397;53.576;9.746;2023-04-15T05:27:31;100962.44;;;8.49;89.09
4767;BME280;2397;53.576;9.746;2023-04-15T05:29:57;100962.31;;;8.50;89.28
4767;BME280;2397;53.576;9.746;2023-04-15T05:32:24;100970.91;;;8.52;89.25
4767;BME280;2397;53.576;9.746;2023-04-15T05:34:51;100972.69;;;8.52;88.92
4767;BME280;2397;53.576;9.746;2023-04-15T05:37:17;100973.81;;;8.49;89.17
4767;BME280;2397;53.576;9.746;2023-04-15T05:39:46;100966.59;;;8.51;89.04
4767;BME280;2397;53.576;9.746;2023-04-15T05:42:13;100970.19;;;8.50;89.54
4767;BME280;2397;53.576;9.746;2023-04-15T05:44:40;100968.94;;;8.45;89.37
4767;BME280;2397;53.576;9.746;2023-04-15T05:47:06;100969.94;;;8.53;89.64
4767;BME280;2397;53.576;9.746;2023-04-15T05:49:33;100972.81;;;8.50;89.73
4767;BME280;2397;53.576;9.746;2023-04-15T05:52:01;100979.63;;;8.53;89.81
4767;BME280;2397;53.576;9.746;2023-04-15T05:54:27;100979.50;;;8.54;89.80
4767;BME280;2397;53.576;9.746;2023-04-15T05:56:54;100986.16;;;8.58;89.78
4767;BME280;2397;53.576;9.746;2023-04-15T05:59:21;100981.06;;;8.66;89.78
4767;BME280;2397;53.576;9.746;2023-04-15T06:01:48;100972.78;;;8.71;89.60
4767;BME280;2397;53.576;9.746;2023-04-15T06:04:15;100978.16;;;8.69;89.05
4767;BME280;2397;53.576;9.746;2023-04-15T06:06:42;100984.13;;;8.71;89.17
4767;BME280;2397;53.576;9.746;2023-04-15T06:09:09;100975.09;;;8.64;89.30
4767;BME280;2397;53.576;9.746;2023-04-15T06:11:35;100972.47;;;8.64;89.18
4767;BME280;2397;53.576;9.746;2023-04-15T06:14:02;100975.63;;;8.58;89.39
4767;BME280;2397;53.576;9.746;2023-04-15T06:16:28;100977.16;;;8.61;89.46
4767;BME280;2397;53.576;9.746;2023-04-15T06:18:55;100981.34;;;8.63;89.67
4767;BME280;2397;53.576;9.746;2023-04-15T06:21:22;100986.59;;;8.63;89.41
4767;BME280;2397;53.576;9.746;2023-04-15T06:23:48;100988.00;;;8.67;89.49
4767;BME280;2397;53.576;9.746;2023-04-15T06:26:15;100990.50;;;8.69;89.49
4767;BME280;2397;53.576;9.746;2023-04-15T06:28:42;101001.59;;;8.72;89.54
4767;BME280;2397;53.576;9.746;2023-04-15T06:31:08;100988.28;;;8.74;89.56
4767;BME280;2397;53.576;9.746;2023-04-15T06:33:35;101003.97;;;8.75;89.99
4767;BME280;2397;53.576;9.746;2023-04-15T06:36:01;100993.16;;;8.78;89.75
4767;BME280;2397;53.576;9.746;2023-04-15T06:38:28;100994.13;;;8.77;89.54
4767;BME280;2397;53.576;9.746;2023-04-15T06:40:54;101000.19;;;8.68;89.73
4767;BME280;2397;53.576;9.746;2023-04-15T06:43:21;100997.81;;;8.65;89.85
4767;BME280;2397;53.576;9.746;2023-04-15T06:45:47;101006.56;;;8.66;90.30
4767;BME280;2397;53.576;9.746;2023-04-15T06:48:14;101005.44;;;8.68;90.34
4767;BME280;2397;53.576;9.746;2023-04-15T06:50:41;101005.44;;;8.68;90.44
4767;BME280;2397;53.576;9.746;2023-04-15T06:53:07;101003.50;;;8.70;90.39
4767;BME280;2397;53.576;9.746;2023-04-15T06:55:34;101007.41;;;8.76;90.37
4767;BME280;2397;53.576;9.746;2023-04-15T06:58:00;101011.97;;;8.74;90.85
4767;BME280;2397;53.576;9.746;2023-04-15T07:00:27;101013.63;;;8.75;90.64
4767;BME280;2397;53.576;9.746;2023-04-15T07:02:54;101003.69;;;8.78;90.50
4767;BME280;2397;53.576;9.746;2023-04-15T07:05:21;101003.97;;;8.85;90.44
4767;BME280;2397;53.576;9.746;2023-04-15T07:07:47;101009.13;;;8.86;90.64
4767;BME280;2397;53.576;9.746;2023-04-15T07:10:14;101012.13;;;8.82;90.85
4767;BME280;2397;53.576;9.746;2023-04-15T07:12:41;101018.94;;;8.84;90.46
4767;BME280;2397;53.576;9.746;2023-04-15T07:15:07;101021.69;;;8.83;90.68
4767;BME280;2397;53.576;9.746;2023-04-15T07:17:34;101017.97;;;8.85;91.11
4767;BME280;2397;53.576;9.746;2023-04-15T07:20:01;101028.78;;;8.82;90.84
4767;BME280;2397;53.576;9.746;2023-04-15T07:22:27;101033.50;;;8.88;90.74
4767;BME280;2397;53.576;9.746;2023-04-15T07:24:54;101040.44;;;8.89;90.82
4767;BME280;2397;53.576;9.746;2023-04-15T07:27:20;101044.88;;;8.89;90.47
4767;BME280;2397;53.576;9.746;2023-04-15T07:29:47;101040.59;;;8.97;90.56
4767;BME280;2397;53.576;9.746;2023-04-15T07:32:14;101046.25;;;8.93;90.46
4767;BME280;2397;53.576;9.746;2023-04-15T07:34:40;101047.53;;;8.98;90.50
4767;BME280;2397;53.576;9.746;2023-04-15T07:37:07;101043.25;;;8.97;90.64
4767;BME280;2397;53.576;9.746;2023-04-15T07:39:34;101048.38;;;8.99;90.57
4767;BME280;2397;53.576;9.746;2023-04-15T07:42:00;101041.53;;;8.96;90.64
4767;BME280;2397;53.576;9.746;2023-04-15T07:44:27;101048.38;;;8.99;90.95
4767;BME280;2397;53.576;9.746;2023-04-15T07:46:54;101042.81;;;9.02;91.01
4767;BME280;2397;53.576;9.746;2023-04-15T07:49:21;101043.25;;;8.97;90.86
4767;BME280;2397;53.576;9.746;2023-04-15T07:51:48;101046.28;;;9.02;90.70
4767;BME280;2397;53.576;9.746;2023-04-15T07:54:15;101049.34;;;9.07;90.95
4767;BME280;2397;53.576;9.746;2023-04-15T07:56:42;101054.22;;;9.12;91.32
4767;BME280;2397;53.576;9.746;2023-04-15T07:59:08;101056.47;;;9.16;91.51
4767;BME280;2397;53.576;9.746;2023-04-15T08:01:35;101061.00;;;9.14;91.41
4767;BME280;2397;53.576;9.746;2023-04-15T08:04:02;101057.00;;;9.20;91.32
4767;BME280;2397;53.576;9.746;2023-04-15T08:06:29;101061.19;;;9.22;91.09
4767;BME280;2397;53.576;9.746;2023-04-15T08:08:55;101062.28;;;9.20;91.29
4767;BME280;2397;53.576;9.746;2023-04-15T08:11:22;101059.78;;;9.18;90.84
4767;BME280;2397;53.576;9.746;2023-04-15T08:13:51;101067.84;;;9.26;90.92
4767;BME280;2397;53.576;9.746;2023-04-15T08:16:18;101057.59;;;9.23;91.04
4767;BME280;2397;53.576;9.746;2023-04-15T08:18:46;101059.50;;;9.21;90.97
4767;BME280;2397;53.576;9.746;2023-04-15T08:21:13;101067.16;;;9.24;91.18
4767;BME280;2397;53.576;9.746;2023-04-15T08:23:39;101066.03;;;9.27;91.13
4767;BME280;2397;53.576;9.746;2023-04-15T08:26:06;101061.34;;;9.30;91.35
4767;BME280;2397;53.576;9.746;2023-04-15T08:28:34;101067.44;;;9.31;91.21
4767;BME280;2397;53.576;9.746;2023-04-15T08:31:01;101063.84;;;9.32;91.17
4767;BME280;2397;53.576;9.746;2023-04-15T08:33:28;101076.19;;;9.31;91.20
4767;BME280;2397;53.576;9.746;2023-04-15T08:35:54;101066.50;;;9.32;91.58
4767;BME280;2397;53.576;9.746;2023-04-15T08:38:21;101068.69;;;9.36;90.97
4767;BME280;2397;53.576;9.746;2023-04-15T08:40:48;101082.72;;;9.37;90.88
4767;BME280;2397;53.576;9.746;2023-04-15T08:43:21;101076.34;;;9.39;91.08
4767;BME280;2397;53.576;9.746;2023-04-15T08:45:54;101076.34;;;9.39;90.98
4767;BME280;2397;53.576;9.746;2023-04-15T08:48:21;101075.34;;;9.40;90.43
4767;BME280;2397;53.576;9.746;2023-04-15T08:50:50;101094.78;;;9.39;90.40
4767;BME280;2397;53.576;9.746;2023-04-15T08:53:17;101089.25;;;9.52;90.35
4767;BME280;2397;53.576;9.746;2023-04-15T08:55:44;101090.78;;;9.54;90.16
4767;BME280;2397;53.576;9.746;2023-04-15T08:58:12;101095.25;;;9.54;90.32
4767;BME280;2397;53.576;9.746;2023-04-15T09:00:40;101097.88;;;9.54;90.10
4767;BME280;2397;53.576;9.746;2023-04-15T09:03:07;101092.19;;;9.58;89.64
4767;BME280;2397;53.576;9.746;2023-04-15T09:05:35;101097.44;;;9.58;89.90
4767;BME280;2397;53.576;9.746;2023-04-15T09:08:03;101098.72;;;9.64;89.41
4767;BME280;2397;53.576;9.746;2023-04-15T09:10:32;101098.56;;;9.65;89.46
4767;BME280;2397;53.576;9.746;2023-04-15T09:13:00;101105.66;;;9.65;89.64
4767;BME280;2397;53.576;9.746;2023-04-15T09:15:27;101101.47;;;9.72;89.32
4767;BME280;2397;53.576;9.746;2023-04-15T09:17:55;101102.59;;;9.69;89.82
4767;BME280;2397;53.576;9.746;2023-04-15T09:20:22;101109.41;;;9.72;89.62
4767;BME280;2397;53.576;9.746;2023-04-15T09:22:49;101113.13;;;9.69;89.68
4767;BME280;2397;53.576;9.746;2023-04-15T09:27:52;101112.88;;;9.72;89.87
4767;BME280;2397;53.576;9.746;2023-04-15T09:30:20;101114.53;;;9.73;89.66
4767;BME280;2397;53.576;9.746;2023-04-15T09:32:51;101114.97;;;9.78;89.60
4767;BME280;2397;53.576;9.746;2023-04-15T09:35:19;101118.16;;;9.91;89.38
4767;BME280;2397;53.576;9.746;2023-04-15T09:37:47;101118.16;;;9.91;89.28
4767;BME280;2397;53.576;9.746;2023-04-15T09:40:29;101123.56;;;9.99;89.46
4767;BME280;2397;53.576;9.746;2023-04-15T09:42:56;101121.91;;;9.98;89.39
4767;BME280;2397;53.576;9.746;2023-04-15T09:45:23;101119.00;;;10.01;89.13
4767;BME280;2397;53.576;9.746;2023-04-15T09:47:56;101120.03;;;10.10;89.06
4767;BME280;2397;53.576;9.746;2023-04-15T09:50:28;101114.88;;;10.08;88.88
4767;BME280;2397;53.576;9.746;2023-04-15T09:52:54;101134.19;;;10.18;88.93
4767;BME280;2397;53.576;9.746;2023-04-15T09:55:21;101128.63;;;10.21;88.69
4767;BME280;2397;53.576;9.746;2023-04-15T09:57:48;101124.16;;;10.31;88.30
4767;BME280;2397;53.576;9.746;2023-04-15T10:00:15;101126.53;;;10.25;87.77
4767;BME280;2397;53.576;9.746;2023-04-15T10:02:42;101125.56;;;10.35;88.12
4767;BME280;2397;53.576;9.746;2023-04-15T10:05:13;101127.78;;;10.50;87.66
4767;BME280;2397;53.576;9.746;2023-04-15T10:07:41;101126.22;;;10.57;87.71
4767;BME280;2397;53.576;9.746;2023-04-15T10:10:08;101124.69;;;10.64;87.73
4767;BME280;2397;53.576;9.746;2023-04-15T10:12:36;101135.09;;;10.75;87.40
4767;BME280;2397;53.576;9.746;2023-04-15T10:15:04;101137.31;;;10.79;87.28
4767;BME280;2397;53.576;9.746;2023-04-15T10:17:32;101134.34;;;10.92;87.06
4767;BME280;2397;53.576;9.746;2023-04-15T10:20:01;101138.78;;;11.01;86.79
4767;BME280;2397;53.576;9.746;2023-04-15T10:22:31;101137.25;;;11.35;86.53
4767;BME280;2397;53.576;9.746;2023-04-15T10:24:58;101140.06;;;11.51;85.98
4767;BME280;2397;53.576;9.746;2023-04-15T10:27:28;101140.59;;;11.64;85.22
4767;BME280;2397;53.576;9.746;2023-04-15T10:29:55;101148.75;;;11.70;85.06
4767;BME280;2397;53.576;9.746;2023-04-15T10:32:24;101144.91;;;11.65;84.67
4767;BME280;2397;53.576;9.746;2023-04-15T10:34:53;101151.31;;;11.62;84.55
4767;BME280;2397;53.576;9.746;2023-04-15T10:37:21;101151.56;;;11.69;83.92
4767;BME280;2397;53.576;9.746;2023-04-15T10:39:48;101142.66;;;11.70;83.85
4767;BME280;2397;53.576;9.746;2023-04-15T10:42:17;101143.69;;;11.77;83.39
4767;BME280;2397;53.576;9.746;2023-04-15T10:44:49;101150.22;;;11.82;82.80
4767;BME280;2397;53.576;9.746;2023-04-15T10:47:20;101144.53;;;11.77;83.29
4767;BME280;2397;53.576;9.746;2023-04-15T10:52:23;101141.97;;;11.85;84.05
4767;BME280;2397;53.576;9.746;2023-04-15T10:55:01;101146.09;;;11.97;83.84
4767;BME280;2397;53.576;9.746;2023-04-15T10:57:34;101148.13;;;12.21;84.35
4767;BME280;2397;53.576;9.746;2023-04-15T11:00:09;101145.47;;;12.56;83.70
4767;BME280;2397;53.576;9.746;2023-04-15T11:02:38;101149.72;;;12.74;83.01
4767;BME280;2397;53.576;9.746;2023-04-15T11:05:06;101150.41;;;12.76;81.61
4767;BME280;2397;53.576;9.746;2023-04-15T11:07:37;101147.41;;;12.97;81.89
4767;BME280;2397;53.576;9.746;2023-04-15T11:12:43;101146.16;;;13.09;79.94
4767;BME280;2397;53.576;9.746;2023-04-15T11:15:31;101139.16;;;13.33;80.09
4767;BME280;2397;53.576;9.746;2023-04-15T11:20:41;101153.09;;;13.69;78.90
4767;BME280;2397;53.576;9.746;2023-04-15T11:23:10;101148.56;;;13.61;78.01
4767;BME280;2397;53.576;9.746;2023-04-15T11:25:41;101152.38;;;13.25;77.67
4767;BME280;2397;53.576;9.746;2023-04-15T11:28:09;101155.84;;;13.18;77.99
4767;BME280;2397;53.576;9.746;2023-04-15T11:30:37;101155.59;;;13.37;78.03
4767;BME280;2397;53.576;9.746;2023-04-15T11:33:09;101162.72;;;13.36;78.07
4767;BME280;2397;53.576;9.746;2023-04-15T11:35:35;101164.63;;;13.52;78.22
4767;BME280;2397;53.576;9.746;2023-04-15T11:38:03;101166.59;;;13.50;77.25
4767;BME280;2397;53.576;9.746;2023-04-15T11:40:30;101172.00;;;13.40;77.31
4767;BME280;2397;53.576;9.746;2023-04-15T11:43:05;101166.94;;;13.47;77.64
4767;BME280;2397;53.576;9.746;2023-04-15T11:45:32;101171.09;;;13.57;76.40
4767;BME280;2397;53.576;9.746;2023-04-15T11:48:08;101171.66;;;13.69;76.34
4767;BME280;2397;53.576;9.746;2023-04-15T11:50:35;101177.63;;;13.71;76.12
4767;BME280;2397;53.576;9.746;2023-04-15T11:53:03;101175.44;;;13.66;74.45
4767;BME280;2397;53.576;9.746;2023-04-15T11:55:45;101170.25;;;13.57;75.27
4767;BME280;2397;53.576;9.746;2023-04-15T11:58:16;101183.03;;;13.53;74.47
4767;BME280;2397;53.576;9.746;2023-04-15T12:00:53;101175.63;;;13.65;74.24
4767;BME280;2397;53.576;9.746;2023-04-15T12:03:25;101184.41;;;13.73;75.31
4767;BME280;2397;53.576;9.746;2023-04-15T12:06:09;101179.94;;;13.66;72.44
4767;BME280;2397;53.576;9.746;2023-04-15T12:13:57;101188.47;;;13.94;68.09
4767;BME280;2397;53.576;9.746;2023-04-15T12:16:24;101195.91;;;13.90;66.91
4767;BME280;2397;53.576;9.746;2023-04-15T12:18:55;101194.44;;;13.96;66.79
4767;BME280;2397;53.576;9.746;2023-04-15T12:21:24;101200.94;;;14.01;66.91
4767;BME280;2397;53.576;9.746;2023-04-15T12:23:53;101201.97;;;14.16;67.76
4767;BME280;2397;53.576;9.746;2023-04-15T12:26:36;101199.66;;;14.21;66.84
4767;BME280;2397;53.576;9.746;2023-04-15T12:29:08;101204.25;;;13.95;66.16
4767;BME280;2397;53.576;9.746;2023-04-15T12:31:36;101207.38;;;13.91;66.73
4767;BME280;2397;53.576;9.746;2023-04-15T12:34:06;101216.88;;;14.09;67.73
4767;BME280;2397;53.576;9.746;2023-04-15T12:36:33;101212.84;;;13.97;66.37
4767;BME280;2397;53.576;9.746;2023-04-15T12:39:05;101221.78;;;13.80;65.82
4767;BME280;2397;53.576;9.746;2023-04-15T12:41:32;101229.03;;;13.78;65.74
4767;BME280;2397;53.576;9.746;2023-04-15T12:43:58;101231.34;;;13.73;66.27
4767;BME280;2397;53.576;9.746;2023-04-15T12:46:25;101232.31;;;13.72;65.37
4767;BME280;2397;53.576;9.746;2023-04-15T12:48:52;101235.78;;;13.64;63.94
4767;BME280;2397;53.576;9.746;2023-04-15T12:51:19;101236.66;;;13.73;64.73
4767;BME280;2397;53.576;9.746;2023-04-15T12:53:49;101242.63;;;13.75;65.14
4767;BME280;2397;53.576;9.746;2023-04-15T12:56:16;101237.31;;;13.75;65.07
4767;BME280;2397;53.576;9.746;2023-04-15T12:58:42;101252.91;;;13.78;65.58
4767;BME280;2397;53.576;9.746;2023-04-15T13:01:09;101255.84;;;13.67;64.89
4767;BME280;2397;53.576;9.746;2023-04-15T13:03:36;101253.53;;;13.72;65.54
4767;BME280;2397;53.576;9.746;2023-04-15T13:06:03;101261.50;;;13.72;65.12
4767;BME280;2397;53.576;9.746;2023-04-15T13:08:31;101262.22;;;13.82;65.73
4767;BME280;2397;53.576;9.746;2023-04-15T13:10:57;101264.25;;;13.88;66.23
4767;BME280;2397;53.576;9.746;2023-04-15T13:13:24;101256.94;;;13.90;65.63
4767;BME280;2397;53.576;9.746;2023-04-15T13:15:51;101254.41;;;13.81;64.75
4767;BME280;2397;53.576;9.746;2023-04-15T13:18:17;101261.94;;;13.93;65.40
4767;BME280;2397;53.576;9.746;2023-04-15T13:20:44;101258.66;;;13.99;64.19
4767;BME280;2397;53.576;9.746;2023-04-15T13:23:10;101267.66;;;14.14;66.23
4767;BME280;2397;53.576;9.746;2023-04-15T13:25:37;101262.75;;;14.27;64.87
4767;BME280;2397;53.576;9.746;2023-04-15T13:28:04;101261.63;;;14.30;66.05
4767;BME280;2397;53.576;9.746;2023-04-15T13:30:30;101266.94;;;14.30;66.03
4767;BME280;2397;53.576;9.746;2023-04-15T13:32:57;101273.16;;;14.21;64.66
4767;BME280;2397;53.576;9.746;2023-04-15T13:35:24;101269.00;;;14.18;65.19
4767;BME280;2397;53.576;9.746;2023-04-15T13:37:50;101265.00;;;14.14;63.76